sensor_id;sensor_type;location;lat;lon;timestamp;P1;durP1;ratioP1;P2;durP2;ratioP2
36457;SDS011;22480;50.546;12.292;2023-04-19T00:00:43;239.90;;;62.42;;
36457;SDS011;22480;50.546;12.292;2023-04-19T00:03:09;404.63;;;73.82;;
36457;SDS011;22480;50.546;12.292;2023-04-19T00:05:35;381.17;;;74.18;;
36457;SDS011;22480;50.546;12.292;2023-04-19T00:08:05;590.90;;;99.75;;
36457;SDS011;22480;50.546;12.292;2023-04-19T00:10:31;320.95;;;71.00;;
36457;SDS011;22480;50.546;12.292;2023-04-19T00:12:57;404.65;;;78.07;;
36457;SDS011;22480;50.546;12.292;2023-04-19T00:15:23;401.38;;;79.75;;
36457;SDS011;22480;50.546;12.292;2023-04-19T00:17:48;372.80;;;81.13;;
36457;SDS011;22480;50.546;12.292;2023-04-19T00:20:14;389.35;;;83.45;;
36457;SDS011;22480;50.546;12.292;2023-04-19T00:22:40;386.15;;;83.07;;
36457;SDS011;22480;50.546;12.292;2023-04-19T00:25:06;329.08;;;79.22;;
36457;SDS011;22480;50.546;12.292;2023-04-19T00:27:32;319.73;;;81.68;;
36457;SDS011;22480;50.546;12.292;2023-04-19T00:29:58;290.02;;;79.35;;
36457;SDS011;22480;50.546;12.292;2023-04-19T00:32:24;294.25;;;82.72;;
36457;SDS011;22480;50.546;12.292;2023-04-19T00:34:50;274.08;;;79.80;;
36457;SDS011;22480;50.546;12.292;2023-04-19T00:37:15;334.00;;;85.07;;
36457;SDS011;22480;50.546;12.292;2023-04-19T00:39:41;257.48;;;77.13;;
36457;SDS011;22480;50.546;12.292;2023-04-19T00:42:07;260.73;;;76.20;;
36457;SDS011;22480;50.546;12.292;2023-04-19T00:44:32;274.55;;;78.13;;
36457;SDS011;22480;50.546;12.292;2023-04-19T00:46:58;204.63;;;70.60;;
36457;SDS011;22480;50.546;12.292;2023-04-19T00:49:25;238.02;;;76.20;;
36457;SDS011;22480;50.546;12.292;2023-04-19T00:51:51;215.20;;;75.28;;
36457;SDS011;22480;50.546;12.292;2023-04-19T00:54:17;221.40;;;72.70;;
36457;SDS011;22480;50.546;12.292;2023-04-19T00:56:47;185.18;;;69.82;;
36457;SDS011;22480;50.546;12.292;2023-04-19T00:59:16;205.73;;;70.85;;
36457;SDS011;22480;50.546;12.292;2023-04-19T01:01:42;193.40;;;68.93;;
36457;SDS011;22480;50.546;12.292;2023-04-19T01:04:08;148.02;;;62.78;;
36457;SDS011;22480;50.546;12.292;2023-04-19T01:06:35;187.60;;;67.60;;
36457;SDS011;22480;50.546;12.292;2023-04-19T01:09:01;152.63;;;61.03;;
36457;SDS011;22480;50.546;12.292;2023-04-19T01:11:27;178.15;;;63.63;;
36457;SDS011;22480;50.546;12.292;2023-04-19T01:13:56;163.80;;;61.83;;
36457;SDS011;22480;50.546;12.292;2023-04-19T01:16:23;197.68;;;68.60;;
36457;SDS011;22480;50.546;12.292;2023-04-19T01:18:52;191.70;;;67.78;;
36457;SDS011;22480;50.546;12.292;2023-04-19T01:21:18;213.10;;;68.88;;
36457;SDS011;22480;50.546;12.292;2023-04-19T01:23:46;170.27;;;63.00;;
36457;SDS011;22480;50.546;12.292;2023-04-19T01:26:13;147.00;;;57.35;;
36457;SDS011;22480;50.546;12.292;2023-04-19T01:28:40;173.70;;;62.63;;
36457;SDS011;22480;50.546;12.292;2023-04-19T01:31:07;133.77;;;54.55;;
36457;SDS011;22480;50.546;12.292;2023-04-19T01:33:35;142.50;;;55.13;;
36457;SDS011;22480;50.546;12.292;2023-04-19T01:36:01;134.90;;;53.10;;
36457;SDS011;22480;50.546;12.292;2023-04-19T01:38:26;117.75;;;49.22;;
36457;SDS011;22480;50.546;12.292;2023-04-19T01:40:52;111.28;;;47.05;;
36457;SDS011;22480;50.546;12.292;2023-04-19T01:43:20;114.22;;;48.92;;
36457;SDS011;22480;50.546;12.292;2023-04-19T01:45:46;115.55;;;48.47;;
36457;SDS011;22480;50.546;12.292;2023-04-19T01:48:12;131.55;;;50.03;;
36457;SDS011;22480;50.546;12.292;2023-04-19T01:50:37;131.65;;;50.33;;
36457;SDS011;22480;50.546;12.292;2023-04-19T01:53:03;136.40;;;50.17;;
36457;SDS011;22480;50.546;12.292;2023-04-19T01:55:31;138.13;;;49.65;;
36457;SDS011;22480;50.546;12.292;2023-04-19T01:57:56;137.77;;;50.58;;
36457;SDS011;22480;50.546;12.292;2023-04-19T02:00:22;123.97;;;51.78;;
36457;SDS011;22480;50.546;12.292;2023-04-19T02:02:48;119.80;;;48.53;;
36457;SDS011;22480;50.546;12.292;2023-04-19T02:05:14;118.47;;;49.65;;
36457;SDS011;22480;50.546;12.292;2023-04-19T02:07:40;132.18;;;49.90;;
36457;SDS011;22480;50.546;12.292;2023-04-19T02:10:07;127.63;;;48.28;;
36457;SDS011;22480;50.546;12.292;2023-04-19T02:12:35;112.80;;;46.05;;
36457;SDS011;22480;50.546;12.292;2023-04-19T02:15:01;123.28;;;46.25;;
36457;SDS011;22480;50.546;12.292;2023-04-19T02:17:33;115.35;;;44.88;;
36457;SDS011;22480;50.546;12.292;2023-04-19T02:19:59;115.20;;;44.65;;
36457;SDS011;22480;50.546;12.292;2023-04-19T02:22:25;94.40;;;40.35;;
36457;SDS011;22480;50.546;12.292;2023-04-19T02:24:51;82.10;;;37.03;;
36457;SDS011;22480;50.546;12.292;2023-04-19T02:27:17;86.45;;;35.72;;
36457;SDS011;22480;50.546;12.292;2023-04-19T02:29:43;77.00;;;34.85;;
36457;SDS011;22480;50.546;12.292;2023-04-19T02:32:10;69.95;;;33.28;;
36457;SDS011;22480;50.546;12.292;2023-04-19T02:34:37;72.07;;;32.33;;
36457;SDS011;22480;50.546;12.292;2023-04-19T02:37:03;70.05;;;32.25;;
36457;SDS011;22480;50.546;12.292;2023-04-19T02:39:29;72.88;;;32.97;;
36457;SDS011;22480;50.546;12.292;2023-04-19T02:41:55;69.55;;;31.27;;
36457;SDS011;22480;50.546;12.292;2023-04-19T02:44:21;74.05;;;33.20;;
36457;SDS011;22480;50.546;12.292;2023-04-19T02:46:47;74.70;;;32.67;;
36457;SDS011;22480;50.546;12.292;2023-04-19T02:49:14;64.57;;;30.67;;
36457;SDS011;22480;50.546;12.292;2023-04-19T02:51:41;76.95;;;32.10;;
36457;SDS011;22480;50.546;12.292;2023-04-19T02:54:07;77.53;;;31.35;;
36457;SDS011;22480;50.546;12.292;2023-04-19T02:56:33;70.90;;;32.40;;
36457;SDS011;22480;50.546;12.292;2023-04-19T02:59:00;56.28;;;28.35;;
36457;SDS011;22480;50.546;12.292;2023-04-19T03:01:26;64.22;;;29.13;;
36457;SDS011;22480;50.546;12.292;2023-04-19T03:03:52;57.55;;;27.38;;
36457;SDS011;22480;50.546;12.292;2023-04-19T03:06:18;56.97;;;28.10;;
36457;SDS011;22480;50.546;12.292;2023-04-19T03:08:44;60.72;;;27.05;;
36457;SDS011;22480;50.546;12.292;2023-04-19T03:11:10;47.95;;;26.25;;
36457;SDS011;22480;50.546;12.292;2023-04-19T03:13:36;50.55;;;25.85;;
36457;SDS011;22480;50.546;12.292;2023-04-19T03:16:04;55.38;;;26.77;;
36457;SDS011;22480;50.546;12.292;2023-04-19T03:18:30;52.65;;;24.48;;
36457;SDS011;22480;50.546;12.292;2023-04-19T03:20:56;49.30;;;24.92;;
36457;SDS011;22480;50.546;12.292;2023-04-19T03:23:26;56.63;;;25.67;;
36457;SDS011;22480;50.546;12.292;2023-04-19T03:25:52;47.30;;;24.83;;
36457;SDS011;22480;50.546;12.292;2023-04-19T03:28:24;52.13;;;25.35;;
36457;SDS011;22480;50.546;12.292;2023-04-19T03:31:19;42.03;;;23.02;;
36457;SDS011;22480;50.546;12.292;2023-04-19T03:33:48;46.10;;;24.20;;
36457;SDS011;22480;50.546;12.292;2023-04-19T03:36:14;40.67;;;22.17;;
36457;SDS011;22480;50.546;12.292;2023-04-19T03:38:42;49.90;;;25.92;;
36457;SDS011;22480;50.546;12.292;2023-04-19T03:41:21;56.00;;;25.33;;
36457;SDS011;22480;50.546;12.292;2023-04-19T03:44:13;47.67;;;25.70;;
36457;SDS011;22480;50.546;12.292;2023-04-19T03:46:42;48.45;;;26.35;;
36457;SDS011;22480;50.546;12.292;2023-04-19T03:49:12;53.20;;;28.05;;
36457;SDS011;22480;50.546;12.292;2023-04-19T03:51:40;49.58;;;26.27;;
36457;SDS011;22480;50.546;12.292;2023-04-19T03:54:06;47.78;;;26.38;;
36457;SDS011;22480;50.546;12.292;2023-04-19T03:56:32;47.70;;;27.20;;
36457;SDS011;22480;50.546;12.292;2023-04-19T03:58:58;58.97;;;29.88;;
36457;SDS011;22480;50.546;12.292;2023-04-19T04:01:25;52.47;;;30.58;;
36457;SDS011;22480;50.546;12.292;2023-04-19T04:03:52;53.38;;;29.98;;
36457;SDS011;22480;50.546;12.292;2023-04-19T04:06:18;52.25;;;28.67;;
36457;SDS011;22480;50.546;12.292;2023-04-19T04:08:44;52.97;;;30.25;;
36457;SDS011;22480;50.546;12.292;2023-04-19T04:11:11;50.70;;;28.77;;
36457;SDS011;22480;50.546;12.292;2023-04-19T04:13:37;54.20;;;28.85;;
36457;SDS011;22480;50.546;12.292;2023-04-19T04:16:11;54.15;;;27.73;;
36457;SDS011;22480;50.546;12.292;2023-04-19T04:18:37;52.20;;;29.25;;
36457;SDS011;22480;50.546;12.292;2023-04-19T04:21:07;54.45;;;30.40;;
36457;SDS011;22480;50.546;12.292;2023-04-19T04:23:35;53.47;;;29.15;;
36457;SDS011;22480;50.546;12.292;2023-04-19T04:26:05;54.75;;;29.77;;
36457;SDS011;22480;50.546;12.292;2023-04-19T04:28:55;57.40;;;30.67;;
36457;SDS011;22480;50.546;12.292;2023-04-19T04:31:21;58.95;;;29.90;;
36457;SDS011;22480;50.546;12.292;2023-04-19T04:33:47;56.47;;;29.15;;
36457;SDS011;22480;50.546;12.292;2023-04-19T04:36:16;53.55;;;30.23;;
36457;SDS011;22480;50.546;12.292;2023-04-19T04:38:43;56.63;;;30.88;;
36457;SDS011;22480;50.546;12.292;2023-04-19T04:41:09;59.15;;;30.33;;
36457;SDS011;22480;50.546;12.292;2023-04-19T04:43:36;61.63;;;31.05;;
36457;SDS011;22480;50.546;12.292;2023-04-19T04:46:02;69.10;;;31.38;;
36457;SDS011;22480;50.546;12.292;2023-04-19T04:48:33;68.88;;;32.90;;
36457;SDS011;22480;50.546;12.292;2023-04-19T04:50:59;77.53;;;34.05;;
36457;SDS011;22480;50.546;12.292;2023-04-19T04:53:27;74.72;;;35.83;;
36457;SDS011;22480;50.546;12.292;2023-04-19T04:55:53;72.72;;;32.33;;
36457;SDS011;22480;50.546;12.292;2023-04-19T04:58:19;88.38;;;36.50;;
36457;SDS011;22480;50.546;12.292;2023-04-19T05:01:01;97.50;;;38.55;;
36457;SDS011;22480;50.546;12.292;2023-04-19T05:03:29;104.22;;;38.35;;
36457;SDS011;22480;50.546;12.292;2023-04-19T05:05:57;118.05;;;39.05;;
36457;SDS011;22480;50.546;12.292;2023-04-19T05:08:24;100.47;;;38.47;;
36457;SDS011;22480;50.546;12.292;2023-04-19T05:10:53;101.43;;;38.47;;
36457;SDS011;22480;50.546;12.292;2023-04-19T05:13:22;113.72;;;38.40;;
36457;SDS011;22480;50.546;12.292;2023-04-19T05:15:49;92.70;;;35.33;;
36457;SDS011;22480;50.546;12.292;2023-04-19T05:18:15;75.00;;;34.00;;
36457;SDS011;22480;50.546;12.292;2023-04-19T05:20:41;76.20;;;33.85;;
36457;SDS011;22480;50.546;12.292;2023-04-19T05:23:15;79.65;;;32.55;;
36457;SDS011;22480;50.546;12.292;2023-04-19T05:25:41;84.30;;;35.08;;
36457;SDS011;22480;50.546;12.292;2023-04-19T05:28:08;89.05;;;35.63;;
36457;SDS011;22480;50.546;12.292;2023-04-19T05:30:44;123.22;;;38.83;;
36457;SDS011;22480;50.546;12.292;2023-04-19T05:33:10;101.10;;;36.53;;
36457;SDS011;22480;50.546;12.292;2023-04-19T05:35:36;101.97;;;37.20;;
36457;SDS011;22480;50.546;12.292;2023-04-19T05:38:02;125.47;;;38.47;;
36457;SDS011;22480;50.546;12.292;2023-04-19T05:40:28;136.60;;;41.78;;
36457;SDS011;22480;50.546;12.292;2023-04-19T05:42:54;138.95;;;42.45;;
36457;SDS011;22480;50.546;12.292;2023-04-19T05:45:20;291.67;;;51.70;;
36457;SDS011;22480;50.546;12.292;2023-04-19T05:47:46;234.30;;;49.05;;
36457;SDS011;22480;50.546;12.292;2023-04-19T05:50:34;194.43;;;40.50;;
36457;SDS011;22480;50.546;12.292;2023-04-19T05:53:19;247.45;;;46.15;;
36457;SDS011;22480;50.546;12.292;2023-04-19T05:55:45;269.13;;;49.10;;
36457;SDS011;22480;50.546;12.292;2023-04-19T05:58:13;316.17;;;50.08;;
36457;SDS011;22480;50.546;12.292;2023-04-19T06:00:39;267.58;;;49.00;;
36457;SDS011;22480;50.546;12.292;2023-04-19T06:03:09;243.32;;;40.00;;
36457;SDS011;22480;50.546;12.292;2023-04-19T06:05:36;301.88;;;45.22;;
36457;SDS011;22480;50.546;12.292;2023-04-19T06:08:01;217.15;;;39.33;;
36457;SDS011;22480;50.546;12.292;2023-04-19T06:10:29;175.40;;;40.25;;
36457;SDS011;22480;50.546;12.292;2023-04-19T06:12:54;369.38;;;56.08;;
36457;SDS011;22480;50.546;12.292;2023-04-19T06:15:20;326.20;;;51.53;;
36457;SDS011;22480;50.546;12.292;2023-04-19T06:17:46;302.25;;;55.22;;
36457;SDS011;22480;50.546;12.292;2023-04-19T06:20:12;90.15;;;38.90;;
36457;SDS011;22480;50.546;12.292;2023-04-19T06:22:41;77.65;;;36.47;;
36457;SDS011;22480;50.546;12.292;2023-04-19T06:25:09;70.38;;;32.58;;
36457;SDS011;22480;50.546;12.292;2023-04-19T06:27:35;48.63;;;25.67;;
36457;SDS011;22480;50.546;12.292;2023-04-19T06:30:00;59.10;;;29.05;;
36457;SDS011;22480;50.546;12.292;2023-04-19T06:32:26;54.42;;;28.17;;
36457;SDS011;22480;50.546;12.292;2023-04-19T06:34:52;42.00;;;23.58;;
36457;SDS011;22480;50.546;12.292;2023-04-19T06:37:18;50.97;;;26.65;;
36457;SDS011;22480;50.546;12.292;2023-04-19T06:39:43;47.88;;;24.35;;
36457;SDS011;22480;50.546;12.292;2023-04-19T06:42:09;52.28;;;23.90;;
36457;SDS011;22480;50.546;12.292;2023-04-19T06:44:36;40.88;;;21.70;;
36457;SDS011;22480;50.546;12.292;2023-04-19T06:47:02;40.92;;;22.48;;
36457;SDS011;22480;50.546;12.292;2023-04-19T06:49:28;40.38;;;22.27;;
36457;SDS011;22480;50.546;12.292;2023-04-19T06:51:53;31.67;;;17.60;;
36457;SDS011;22480;50.546;12.292;2023-04-19T06:54:20;34.30;;;17.75;;
36457;SDS011;22480;50.546;12.292;2023-04-19T06:56:46;34.30;;;18.30;;
36457;SDS011;22480;50.546;12.292;2023-04-19T06:59:14;35.17;;;19.35;;
36457;SDS011;22480;50.546;12.292;2023-04-19T07:04:10;37.45;;;20.23;;
36457;SDS011;22480;50.546;12.292;2023-04-19T07:06:36;35.75;;;19.85;;
36457;SDS011;22480;50.546;12.292;2023-04-19T07:09:03;35.88;;;19.77;;
36457;SDS011;22480;50.546;12.292;2023-04-19T07:11:30;38.25;;;18.90;;
36457;SDS011;22480;50.546;12.292;2023-04-19T07:13:56;35.42;;;18.55;;
36457;SDS011;22480;50.546;12.292;2023-04-19T07:16:22;37.67;;;18.27;;
36457;SDS011;22480;50.546;12.292;2023-04-19T07:18:48;33.17;;;18.45;;
36457;SDS011;22480;50.546;12.292;2023-04-19T07:21:14;28.33;;;17.45;;
36457;SDS011;22480;50.546;12.292;2023-04-19T07:23:40;29.15;;;15.85;;
36457;SDS011;22480;50.546;12.292;2023-04-19T07:26:06;25.88;;;15.10;;
36457;SDS011;22480;50.546;12.292;2023-04-19T07:28:32;25.60;;;14.50;;
36457;SDS011;22480;50.546;12.292;2023-04-19T07:30:58;22.02;;;13.82;;
36457;SDS011;22480;50.546;12.292;2023-04-19T07:33:25;22.33;;;11.65;;
36457;SDS011;22480;50.546;12.292;2023-04-19T07:35:52;20.27;;;10.23;;
36457;SDS011;22480;50.546;12.292;2023-04-19T07:38:18;14.68;;;9.80;;
36457;SDS011;22480;50.546;12.292;2023-04-19T07:40:44;11.48;;;8.48;;
36457;SDS011;22480;50.546;12.292;2023-04-19T07:43:10;14.85;;;8.95;;
36457;SDS011;22480;50.546;12.292;2023-04-19T07:45:36;13.82;;;7.50;;
36457;SDS011;22480;50.546;12.292;2023-04-19T07:48:01;9.98;;;5.90;;
36457;SDS011;22480;50.546;12.292;2023-04-19T07:50:27;11.75;;;6.93;;
36457;SDS011;22480;50.546;12.292;2023-04-19T07:52:53;9.52;;;6.82;;
36457;SDS011;22480;50.546;12.292;2023-04-19T07:55:19;8.32;;;5.80;;
36457;SDS011;22480;50.546;12.292;2023-04-19T07:57:45;7.18;;;5.20;;
36457;SDS011;22480;50.546;12.292;2023-04-19T08:00:15;7.40;;;4.47;;
36457;SDS011;22480;50.546;12.292;2023-04-19T08:02:45;10.93;;;7.28;;
36457;SDS011;22480;50.546;12.292;2023-04-19T08:05:11;9.52;;;5.75;;
36457;SDS011;22480;50.546;12.292;2023-04-19T08:07:38;6.75;;;4.88;;
36457;SDS011;22480;50.546;12.292;2023-04-19T08:10:05;6.28;;;3.97;;
36457;SDS011;22480;50.546;12.292;2023-04-19T08:12:31;9.65;;;5.03;;
36457;SDS011;22480;50.546;12.292;2023-04-19T08:14:57;7.97;;;4.85;;
36457;SDS011;22480;50.546;12.292;2023-04-19T08:17:23;6.57;;;4.47;;
36457;SDS011;22480;50.546;12.292;2023-04-19T08:19:49;7.10;;;4.40;;
36457;SDS011;22480;50.546;12.292;2023-04-19T08:22:15;7.38;;;4.47;;
36457;SDS011;22480;50.546;12.292;2023-04-19T08:24:42;6.90;;;4.07;;
36457;SDS011;22480;50.546;12.292;2023-04-19T08:27:08;6.13;;;3.80;;
36457;SDS011;22480;50.546;12.292;2023-04-19T08:29:35;9.18;;;4.95;;
36457;SDS011;22480;50.546;12.292;2023-04-19T08:32:03;4.22;;;3.40;;
36457;SDS011;22480;50.546;12.292;2023-04-19T08:34:29;6.65;;;3.65;;
36457;SDS011;22480;50.546;12.292;2023-04-19T08:36:55;8.50;;;4.10;;
36457;SDS011;22480;50.546;12.292;2023-04-19T08:39:21;7.75;;;4.40;;
36457;SDS011;22480;50.546;12.292;2023-04-19T08:41:47;6.05;;;3.22;;
36457;SDS011;22480;50.546;12.292;2023-04-19T08:44:14;4.38;;;3.40;;
36457;SDS011;22480;50.546;12.292;2023-04-19T08:46:41;5.60;;;3.45;;
36457;SDS011;22480;50.546;12.292;2023-04-19T08:49:08;6.00;;;3.30;;
36457;SDS011;22480;50.546;12.292;2023-04-19T08:51:34;4.53;;;3.53;;
36457;SDS011;22480;50.546;12.292;2023-04-19T08:54:05;3.58;;;3.15;;
36457;SDS011;22480;50.546;12.292;2023-04-19T08:56:32;3.67;;;3.20;;
36457;SDS011;22480;50.546;12.292;2023-04-19T08:58:58;4.40;;;2.90;;
36457;SDS011;22480;50.546;12.292;2023-04-19T09:01:23;5.10;;;3.33;;
36457;SDS011;22480;50.546;12.292;2023-04-19T09:03:49;4.50;;;3.03;;
36457;SDS011;22480;50.546;12.292;2023-04-19T09:06:15;5.45;;;3.22;;
36457;SDS011;22480;50.546;12.292;2023-04-19T09:08:41;4.85;;;3.63;;
36457;SDS011;22480;50.546;12.292;2023-04-19T09:11:07;5.43;;;3.10;;
36457;SDS011;22480;50.546;12.292;2023-04-19T09:13:33;6.95;;;3.03;;
36457;SDS011;22480;50.546;12.292;2023-04-19T09:16:04;4.15;;;3.25;;
36457;SDS011;22480;50.546;12.292;2023-04-19T09:18:32;4.85;;;2.55;;
36457;SDS011;22480;50.546;12.292;2023-04-19T09:20:58;4.13;;;3.38;;
36457;SDS011;22480;50.546;12.292;2023-04-19T09:23:26;4.47;;;3.10;;
36457;SDS011;22480;50.546;12.292;2023-04-19T09:25:54;4.97;;;3.30;;
36457;SDS011;22480;50.546;12.292;2023-04-19T09:28:28;4.53;;;2.63;;
36457;SDS011;22480;50.546;12.292;2023-04-19T09:30:55;5.28;;;2.40;;
36457;SDS011;22480;50.546;12.292;2023-04-19T09:33:29;3.40;;;2.88;;
36457;SDS011;22480;50.546;12.292;2023-04-19T09:36:01;3.67;;;2.85;;
36457;SDS011;22480;50.546;12.292;2023-04-19T09:38:27;5.85;;;2.60;;
36457;SDS011;22480;50.546;12.292;2023-04-19T09:41:06;3.85;;;2.65;;
36457;SDS011;22480;50.546;12.292;2023-04-19T09:43:33;4.35;;;3.33;;
36457;SDS011;22480;50.546;12.292;2023-04-19T09:45:59;5.93;;;3.00;;
36457;SDS011;22480;50.546;12.292;2023-04-19T09:48:25;2.75;;;2.40;;
36457;SDS011;22480;50.546;12.292;2023-04-19T09:50:55;3.35;;;2.40;;
36457;SDS011;22480;50.546;12.292;2023-04-19T09:53:25;4.68;;;2.42;;
36457;SDS011;22480;50.546;12.292;2023-04-19T09:55:52;4.07;;;2.20;;
36457;SDS011;22480;50.546;12.292;2023-04-19T09:58:19;3.10;;;2.80;;
36457;SDS011;22480;50.546;12.292;2023-04-19T10:00:45;4.00;;;2.65;;
36457;SDS011;22480;50.546;12.292;2023-04-19T10:03:13;3.08;;;2.45;;
36457;SDS011;22480;50.546;12.292;2023-04-19T10:05:40;5.82;;;2.38;;
36457;SDS011;22480;50.546;12.292;2023-04-19T10:08:07;2.85;;;2.35;;
36457;SDS011;22480;50.546;12.292;2023-04-19T10:10:33;4.82;;;2.60;;
36457;SDS011;22480;50.546;12.292;2023-04-19T10:13:01;4.32;;;2.95;;
36457;SDS011;22480;50.546;12.292;2023-04-19T10:15:29;5.13;;;2.33;;
36457;SDS011;22480;50.546;12.292;2023-04-19T10:17:56;3.20;;;2.45;;
36457;SDS011;22480;50.546;12.292;2023-04-19T10:20:23;3.65;;;2.55;;
36457;SDS011;22480;50.546;12.292;2023-04-19T10:23:10;3.03;;;2.38;;
36457;SDS011;22480;50.546;12.292;2023-04-19T10:25:36;6.55;;;2.33;;
36457;SDS011;22480;50.546;12.292;2023-04-19T10:28:02;4.90;;;2.70;;
36457;SDS011;22480;50.546;12.292;2023-04-19T10:30:28;3.42;;;2.30;;
36457;SDS011;22480;50.546;12.292;2023-04-19T10:32:55;3.72;;;2.50;;
36457;SDS011;22480;50.546;12.292;2023-04-19T10:35:27;3.25;;;2.58;;
36457;SDS011;22480;50.546;12.292;2023-04-19T10:38:11;3.83;;;2.65;;
36457;SDS011;22480;50.546;12.292;2023-04-19T10:43:30;4.60;;;2.58;;
36457;SDS011;22480;50.546;12.292;2023-04-19T10:45:59;3.97;;;2.67;;
36457;SDS011;22480;50.546;12.292;2023-04-19T10:51:01;4.45;;;2.60;;
36457;SDS011;22480;50.546;12.292;2023-04-19T11:01:39;7.40;;;3.17;;
36457;SDS011;22480;50.546;12.292;2023-04-19T11:04:10;5.03;;;2.42;;
36457;SDS011;22480;50.546;12.292;2023-04-19T11:06:38;5.13;;;3.28;;
36457;SDS011;22480;50.546;12.292;2023-04-19T11:11:59;2.95;;;2.63;;
36457;SDS011;22480;50.546;12.292;2023-04-19T11:14:28;7.03;;;2.85;;
36457;SDS011;22480;50.546;12.292;2023-04-19T11:16:56;4.45;;;2.55;;
36457;SDS011;22480;50.546;12.292;2023-04-19T11:19:23;8.18;;;3.47;;
36457;SDS011;22480;50.546;12.292;2023-04-19T11:21:48;3.42;;;2.40;;
36457;SDS011;22480;50.546;12.292;2023-04-19T11:24:14;4.60;;;3.38;;
36457;SDS011;22480;50.546;12.292;2023-04-19T11:26:43;4.65;;;3.15;;
36457;SDS011;22480;50.546;12.292;2023-04-19T11:29:10;4.75;;;2.63;;
36457;SDS011;22480;50.546;12.292;2023-04-19T11:31:36;4.57;;;2.78;;
36457;SDS011;22480;50.546;12.292;2023-04-19T11:34:02;4.95;;;2.42;;
36457;SDS011;22480;50.546;12.292;2023-04-19T11:36:29;4.25;;;3.15;;
36457;SDS011;22480;50.546;12.292;2023-04-19T11:38:56;4.05;;;2.33;;
36457;SDS011;22480;50.546;12.292;2023-04-19T11:41:22;3.25;;;2.47;;
36457;SDS011;22480;50.546;12.292;2023-04-19T11:43:48;3.80;;;2.63;;
36457;SDS011;22480;50.546;12.292;2023-04-19T11:46:13;4.38;;;2.88;;
36457;SDS011;22480;50.546;12.292;2023-04-19T11:48:49;8.30;;;5.32;;
36457;SDS011;22480;50.546;12.292;2023-04-19T11:51:16;3.63;;;2.60;;
36457;SDS011;22480;50.546;12.292;2023-04-19T11:53:42;3.47;;;2.50;;
36457;SDS011;22480;50.546;12.292;2023-04-19T11:56:08;4.75;;;2.90;;
36457;SDS011;22480;50.546;12.292;2023-04-19T11:58:38;6.63;;;2.75;;
36457;SDS011;22480;50.546;12.292;2023-04-19T12:01:10;3.67;;;2.40;;
36457;SDS011;22480;50.546;12.292;2023-04-19T12:03:43;4.85;;;2.70;;
36457;SDS011;22480;50.546;12.292;2023-04-19T12:06:14;4.93;;;3.25;;
36457;SDS011;22480;50.546;12.292;2023-04-19T12:08:47;5.35;;;2.78;;
36457;SDS011;22480;50.546;12.292;2023-04-19T12:11:15;6.78;;;3.00;;
36457;SDS011;22480;50.546;12.292;2023-04-19T12:13:43;3.60;;;2.45;;
36457;SDS011;22480;50.546;12.292;2023-04-19T12:16:09;3.83;;;2.78;;
36457;SDS011;22480;50.546;12.292;2023-04-19T12:21:09;5.35;;;3.35;;
36457;SDS011;22480;50.546;12.292;2023-04-19T12:23:47;6.63;;;3.13;;
36457;SDS011;22480;50.546;12.292;2023-04-19T12:26:13;5.82;;;3.30;;
36457;SDS011;22480;50.546;12.292;2023-04-19T12:28:38;4.75;;;3.08;;
36457;SDS011;22480;50.546;12.292;2023-04-19T12:31:04;4.95;;;3.22;;
36457;SDS011;22480;50.546;12.292;2023-04-19T12:33:30;7.15;;;3.78;;
36457;SDS011;22480;50.546;12.292;2023-04-19T12:35:55;4.47;;;3.30;;
36457;SDS011;22480;50.546;12.292;2023-04-19T12:38:21;7.15;;;3.95;;
36457;SDS011;22480;50.546;12.292;2023-04-19T12:40:47;6.85;;;3.92;;
36457;SDS011;22480;50.546;12.292;2023-04-19T12:43:12;7.22;;;4.10;;
36457;SDS011;22480;50.546;12.292;2023-04-19T12:45:38;8.60;;;4.53;;
36457;SDS011;22480;50.546;12.292;2023-04-19T12:48:04;5.05;;;3.05;;
36457;SDS011;22480;50.546;12.292;2023-04-19T12:50:31;6.93;;;3.63;;
36457;SDS011;22480;50.546;12.292;2023-04-19T12:52:56;6.15;;;3.35;;
36457;SDS011;22480;50.546;12.292;2023-04-19T12:55:22;4.65;;;3.13;;
36457;SDS011;22480;50.546;12.292;2023-04-19T12:57:48;5.22;;;3.15;;
36457;SDS011;22480;50.546;12.292;2023-04-19T13:00:14;5.35;;;3.15;;
36457;SDS011;22480;50.546;12.292;2023-04-19T13:02:40;5.68;;;3.40;;
36457;SDS011;22480;50.546;12.292;2023-04-19T13:05:05;5.10;;;3.08;;
36457;SDS011;22480;50.546;12.292;2023-04-19T13:07:31;5.35;;;3.35;;
36457;SDS011;22480;50.546;12.292;2023-04-19T13:09:57;7.88;;;3.67;;
36457;SDS011;22480;50.546;12.292;2023-04-19T13:12:23;5.80;;;3.08;;
36457;SDS011;22480;50.546;12.292;2023-04-19T13:14:49;6.22;;;3.70;;
36457;SDS011;22480;50.546;12.292;2023-04-19T13:17:17;4.47;;;3.15;;
36457;SDS011;22480;50.546;12.292;2023-04-19T13:19:43;6.03;;;3.40;;
36457;SDS011;22480;50.546;12.292;2023-04-19T13:22:09;6.32;;;3.42;;
36457;SDS011;22480;50.546;12.292;2023-04-19T13:24:34;8.40;;;3.45;;
36457;SDS011;22480;50.546;12.292;2023-04-19T13:27:00;5.85;;;2.90;;
36457;SDS011;22480;50.546;12.292;2023-04-19T13:29:26;7.18;;;3.03;;
36457;SDS011;22480;50.546;12.292;2023-04-19T13:31:53;7.35;;;3.40;;
36457;SDS011;22480;50.546;12.292;2023-04-19T13:34:19;5.05;;;3.17;;
36457;SDS011;22480;50.546;12.292;2023-04-19T13:36:45;5.53;;;2.30;;
36457;SDS011;22480;50.546;12.292;2023-04-19T13:39:11;6.25;;;2.75;;
36457;SDS011;22480;50.546;12.292;2023-04-19T13:41:36;4.38;;;3.05;;
36457;SDS011;22480;50.546;12.292;2023-04-19T13:44:02;4.38;;;2.38;;
36457;SDS011;22480;50.546;12.292;2023-04-19T13:46:28;3.67;;;2.60;;
36457;SDS011;22480;50.546;12.292;2023-04-19T13:48:54;5.20;;;2.78;;
36457;SDS011;22480;50.546;12.292;2023-04-19T13:51:19;6.00;;;3.05;;
36457;SDS011;22480;50.546;12.292;2023-04-19T13:53:45;4.40;;;2.67;;
36457;SDS011;22480;50.546;12.292;2023-04-19T13:56:11;3.13;;;2.80;;
36457;SDS011;22480;50.546;12.292;2023-04-19T13:58:36;5.25;;;3.08;;
36457;SDS011;22480;50.546;12.292;2023-04-19T14:01:02;4.60;;;3.60;;
36457;SDS011;22480;50.546;12.292;2023-04-19T14:03:28;6.30;;;3.28;;
36457;SDS011;22480;50.546;12.292;2023-04-19T14:05:55;6.20;;;3.40;;
36457;SDS011;22480;50.546;12.292;2023-04-19T14:08:21;3.97;;;2.92;;
36457;SDS011;22480;50.546;12.292;2023-04-19T14:10:47;6.20;;;3.75;;
36457;SDS011;22480;50.546;12.292;2023-04-19T14:13:13;11.10;;;6.10;;
36457;SDS011;22480;50.546;12.292;2023-04-19T14:15:39;4.38;;;3.42;;
36457;SDS011;22480;50.546;12.292;2023-04-19T14:18:05;5.68;;;3.90;;
36457;SDS011;22480;50.546;12.292;2023-04-19T14:20:31;5.75;;;3.88;;
36457;SDS011;22480;50.546;12.292;2023-04-19T14:22:56;6.82;;;3.88;;
36457;SDS011;22480;50.546;12.292;2023-04-19T14:25:24;5.35;;;3.70;;
36457;SDS011;22480;50.546;12.292;2023-04-19T14:27:50;5.55;;;3.95;;
36457;SDS011;22480;50.546;12.292;2023-04-19T14:30:16;7.22;;;4.38;;
36457;SDS011;22480;50.546;12.292;2023-04-19T14:32:42;7.45;;;3.60;;
36457;SDS011;22480;50.546;12.292;2023-04-19T14:35:07;6.88;;;4.13;;
36457;SDS011;22480;50.546;12.292;2023-04-19T14:37:35;4.57;;;3.50;;
36457;SDS011;22480;50.546;12.292;2023-04-19T14:40:02;4.07;;;3.28;;